sensor_id;sensor_type;location;lat;lon;timestamp;temperature;humidity
56729;DHT22;42612;52.232;7.560;2023-02-28T00:00:26;6.80;49.80
56729;DHT22;42612;52.232;7.560;2023-02-28T00:02:52;6.80;49.80
56729;DHT22;42612;52.232;7.560;2023-02-28T00:05:20;6.80;49.80
56729;DHT22;42612;52.232;7.560;2023-02-28T00:07:47;6.80;49.70
56729;DHT22;42612;52.232;7.560;2023-02-28T00:10:24;6.80;49.70
56729;DHT22;42612;52.232;7.560;2023-02-28T00:12:53;6.80;49.70
56729;DHT22;42612;52.232;7.560;2023-02-28T00:15:20;6.80;49.70
56729;DHT22;42612;52.232;7.560;2023-02-28T00:17:46;6.80;49.70
56729;DHT22;42612;52.232;7.560;2023-02-28T00:20:13;6.80;49.70
56729;DHT22;42612;52.232;7.560;2023-02-28T00:22:41;6.80;49.70
56729;DHT22;42612;52.232;7.560;2023-02-28T00:25:10;6.90;49.80
56729;DHT22;42612;52.232;7.560;2023-02-28T00:27:38;6.80;49.80
56729;DHT22;42612;52.232;7.560;2023-02-28T00:30:05;6.80;49.80
56729;DHT22;42612;52.232;7.560;2023-02-28T00:32:34;6.90;50.00
56729;DHT22;42612;52.232;7.560;2023-02-28T00:35:00;6.90;50.10
56729;DHT22;42612;52.232;7.560;2023-02-28T00:37:26;6.90;50.10
56729;DHT22;42612;52.232;7.560;2023-02-28T00:39:52;6.90;50.20
56729;DHT22;42612;52.232;7.560;2023-02-28T00:42:17;6.90;50.10
56729;DHT22;42612;52.232;7.560;2023-02-28T00:44:43;6.90;50.20
56729;DHT22;42612;52.232;7.560;2023-02-28T00:47:09;7.00;50.30
56729;DHT22;42612;52.232;7.560;2023-02-28T00:49:34;6.90;50.20
56729;DHT22;42612;52.232;7.560;2023-02-28T00:52:00;6.90;50.20
56729;DHT22;42612;52.232;7.560;2023-02-28T00:54:26;6.90;50.30
56729;DHT22;42612;52.232;7.560;2023-02-28T00:56:52;7.00;50.40
56729;DHT22;42612;52.232;7.560;2023-02-28T00:59:18;7.00;50.50
56729;DHT22;42612;52.232;7.560;2023-02-28T01:01:45;7.00;50.80
56729;DHT22;42612;52.232;7.560;2023-02-28T01:04:12;7.00;50.70
56729;DHT22;42612;52.232;7.560;2023-02-28T01:06:38;7.00;50.70
56729;DHT22;42612;52.232;7.560;2023-02-28T01:09:05;7.00;51.10
56729;DHT22;42612;52.232;7.560;2023-02-28T01:11:32;7.00;50.60
56729;DHT22;42612;52.232;7.560;2023-02-28T01:13:59;7.00;50.50
56729;DHT22;42612;52.232;7.560;2023-02-28T01:16:25;7.00;50.40
56729;DHT22;42612;52.232;7.560;2023-02-28T01:18:51;7.00;50.60
56729;DHT22;42612;52.232;7.560;2023-02-28T01:21:19;7.10;50.70
56729;DHT22;42612;52.232;7.560;2023-02-28T01:23:46;7.00;50.60
56729;DHT22;42612;52.232;7.560;2023-02-28T01:26:19;7.00;50.60
56729;DHT22;42612;52.232;7.560;2023-02-28T01:28:47;7.10;50.70
56729;DHT22;42612;52.232;7.560;2023-02-28T01:31:13;7.10;50.80
56729;DHT22;42612;52.232;7.560;2023-02-28T01:33:39;7.10;50.90
56729;DHT22;42612;52.232;7.560;2023-02-28T01:36:08;7.10;51.00
56729;DHT22;42612;52.232;7.560;2023-02-28T01:38:39;7.10;50.80
56729;DHT22;42612;52.232;7.560;2023-02-28T01:41:06;7.20;50.90
56729;DHT22;42612;52.232;7.560;2023-02-28T01:46:22;7.20;51.00
56729;DHT22;42612;52.232;7.560;2023-02-28T01:48:54;7.20;50.70
56729;DHT22;42612;52.232;7.560;2023-02-28T01:51:58;7.20;50.70
56729;DHT22;42612;52.232;7.560;2023-02-28T01:54:29;7.20;51.20
56729;DHT22;42612;52.232;7.560;2023-02-28T01:57:07;7.20;51.10
56729;DHT22;42612;52.232;7.560;2023-02-28T01:59:40;7.20;51.20
56729;DHT22;42612;52.232;7.560;2023-02-28T02:02:18;7.20;51.10
56729;DHT22;42612;52.232;7.560;2023-02-28T02:05:24;7.20;51.20
56729;DHT22;42612;52.232;7.560;2023-02-28T02:07:54;7.20;51.90
56729;DHT22;42612;52.232;7.560;2023-02-28T02:10:21;7.20;51.40
56729;DHT22;42612;52.232;7.560;2023-02-28T02:16:49;7.20;52.20
56729;DHT22;42612;52.232;7.560;2023-02-28T02:19:17;7.20;52.30
56729;DHT22;42612;52.232;7.560;2023-02-28T02:25:16;7.20;51.90
56729;DHT22;42612;52.232;7.560;2023-02-28T02:38:48;7.10;51.70
56729;DHT22;42612;52.232;7.560;2023-02-28T02:41:24;7.10;51.70
56729;DHT22;42612;52.232;7.560;2023-02-28T02:44:13;7.10;51.50
56729;DHT22;42612;52.232;7.560;2023-02-28T02:46:45;7.10;51.70
56729;DHT22;42612;52.232;7.560;2023-02-28T02:49:24;7.00;51.50
56729;DHT22;42612;52.232;7.560;2023-02-28T02:51:53;7.00;52.00
56729;DHT22;42612;52.232;7.560;2023-02-28T02:54:27;6.90;51.70
56729;DHT22;42612;52.232;7.560;2023-02-28T02:56:57;6.90;52.00
56729;DHT22;42612;52.232;7.560;2023-02-28T02:59:25;6.80;51.90
56729;DHT22;42612;52.232;7.560;2023-02-28T03:01:55;6.80;51.90
56729;DHT22;42612;52.232;7.560;2023-02-28T03:04:25;6.80;52.20
56729;DHT22;42612;52.232;7.560;2023-02-28T03:06:54;6.80;52.00
56729;DHT22;42612;52.232;7.560;2023-02-28T03:09:24;6.80;51.80
56729;DHT22;42612;52.232;7.560;2023-02-28T03:11:53;6.80;51.80
56729;DHT22;42612;52.232;7.560;2023-02-28T03:17:35;6.80;51.50
56729;DHT22;42612;52.232;7.560;2023-02-28T03:23:24;6.90;51.80
56729;DHT22;42612;52.232;7.560;2023-02-28T03:26:07;6.80;51.60
56729;DHT22;42612;52.232;7.560;2023-02-28T03:28:43;6.80;51.50
56729;DHT22;42612;52.232;7.560;2023-02-28T03:31:38;6.80;51.60
56729;DHT22;42612;52.232;7.560;2023-02-28T03:34:10;6.70;52.20
56729;DHT22;42612;52.232;7.560;2023-02-28T03:36:52;6.70;51.70
56729;DHT22;42612;52.232;7.560;2023-02-28T03:39:34;6.70;51.50
56729;DHT22;42612;52.232;7.560;2023-02-28T03:42:15;6.70;51.40
56729;DHT22;42612;52.232;7.560;2023-02-28T03:44:48;6.70;51.20
56729;DHT22;42612;52.232;7.560;2023-02-28T03:52:49;6.60;51.20
56729;DHT22;42612;52.232;7.560;2023-02-28T03:55:19;6.60;51.20
56729;DHT22;42612;52.232;7.560;2023-02-28T03:58:03;6.60;51.20
56729;DHT22;42612;52.232;7.560;2023-02-28T04:00:55;6.60;51.40
56729;DHT22;42612;52.232;7.560;2023-02-28T04:03:25;6.60;51.30
56729;DHT22;42612;52.232;7.560;2023-02-28T04:05:52;6.50;51.10
56729;DHT22;42612;52.232;7.560;2023-02-28T04:08:19;6.50;51.10
56729;DHT22;42612;52.232;7.560;2023-02-28T04:10:51;6.50;51.10
56729;DHT22;42612;52.232;7.560;2023-02-28T04:13:21;6.40;51.10
56729;DHT22;42612;52.232;7.560;2023-02-28T04:15:46;6.40;51.10
56729;DHT22;42612;52.232;7.560;2023-02-28T04:18:12;6.40;51.10
56729;DHT22;42612;52.232;7.560;2023-02-28T04:20:38;6.40;51.20
56729;DHT22;42612;52.232;7.560;2023-02-28T04:23:03;6.40;51.20
56729;DHT22;42612;52.232;7.560;2023-02-28T04:25:29;6.30;51.20
56729;DHT22;42612;52.232;7.560;2023-02-28T04:27:55;6.30;51.20
56729;DHT22;42612;52.232;7.560;2023-02-28T04:30:20;6.30;51.50
56729;DHT22;42612;52.232;7.560;2023-02-28T04:32:46;6.30;51.60
56729;DHT22;42612;52.232;7.560;2023-02-28T04:35:12;6.30;51.50
56729;DHT22;42612;52.232;7.560;2023-02-28T04:37:37;6.30;51.40
56729;DHT22;42612;52.232;7.560;2023-02-28T04:40:04;6.30;51.40
56729;DHT22;42612;52.232;7.560;2023-02-28T04:42:30;6.30;51.40
56729;DHT22;42612;52.232;7.560;2023-02-28T04:45:03;6.30;51.40
56729;DHT22;42612;52.232;7.560;2023-02-28T04:47:29;6.30;51.30
56729;DHT22;42612;52.232;7.560;2023-02-28T04:49:55;6.30;51.30
56729;DHT22;42612;52.232;7.560;2023-02-28T04:52:21;6.30;51.50
56729;DHT22;42612;52.232;7.560;2023-02-28T04:54:47;6.30;51.40
56729;DHT22;42612;52.232;7.560;2023-02-28T04:57:12;6.20;51.30
56729;DHT22;42612;52.232;7.560;2023-02-28T04:59:38;6.20;51.40
56729;DHT22;42612;52.232;7.560;2023-02-28T05:02:05;6.20;51.50
56729;DHT22;42612;52.232;7.560;2023-02-28T05:04:35;6.20;51.50
56729;DHT22;42612;52.232;7.560;2023-02-28T05:07:02;6.20;51.60
56729;DHT22;42612;52.232;7.560;2023-02-28T05:09:28;6.10;51.20
56729;DHT22;42612;52.232;7.560;2023-02-28T05:11:55;6.10;51.50
56729;DHT22;42612;52.232;7.560;2023-02-28T05:14:21;6.10;51.50
56729;DHT22;42612;52.232;7.560;2023-02-28T05:16:47;6.10;51.50
56729;DHT22;42612;52.232;7.560;2023-02-28T05:19:12;6.10;51.50
56729;DHT22;42612;52.232;7.560;2023-02-28T05:21:52;6.10;51.50
56729;DHT22;42612;52.232;7.560;2023-02-28T05:24:19;6.10;51.50
56729;DHT22;42612;52.232;7.560;2023-02-28T05:26:52;6.10;51.50
56729;DHT22;42612;52.232;7.560;2023-02-28T05:29:19;6.00;51.50
56729;DHT22;42612;52.232;7.560;2023-02-28T05:31:45;6.00;51.90
56729;DHT22;42612;52.232;7.560;2023-02-28T05:34:11;6.00;51.90
56729;DHT22;42612;52.232;7.560;2023-02-28T05:36:38;6.00;51.70
56729;DHT22;42612;52.232;7.560;2023-02-28T05:39:06;5.90;51.50
56729;DHT22;42612;52.232;7.560;2023-02-28T05:41:32;5.90;51.50
56729;DHT22;42612;52.232;7.560;2023-02-28T05:43:58;5.90;51.50
56729;DHT22;42612;52.232;7.560;2023-02-28T05:46:25;5.90;51.50
56729;DHT22;42612;52.232;7.560;2023-02-28T05:48:50;5.90;51.50
56729;DHT22;42612;52.232;7.560;2023-02-28T05:51:16;5.90;51.50
56729;DHT22;42612;52.232;7.560;2023-02-28T05:53:43;5.90;51.40
56729;DHT22;42612;52.232;7.560;2023-02-28T05:56:08;5.90;51.50
56729;DHT22;42612;52.232;7.560;2023-02-28T05:58:34;5.80;51.40
56729;DHT22;42612;52.232;7.560;2023-02-28T06:01:18;5.80;51.40
56729;DHT22;42612;52.232;7.560;2023-02-28T06:03:46;5.80;51.40
56729;DHT22;42612;52.232;7.560;2023-02-28T06:06:11;5.80;51.40
56729;DHT22;42612;52.232;7.560;2023-02-28T06:08:37;5.80;51.40
56729;DHT22;42612;52.232;7.560;2023-02-28T06:11:03;5.70;51.30
56729;DHT22;42612;52.232;7.560;2023-02-28T06:13:29;5.80;51.40
56729;DHT22;42612;52.232;7.560;2023-02-28T06:15:55;5.70;51.30
56729;DHT22;42612;52.232;7.560;2023-02-28T06:18:21;5.70;51.30
56729;DHT22;42612;52.232;7.560;2023-02-28T06:20:53;5.70;51.50
56729;DHT22;42612;52.232;7.560;2023-02-28T06:23:20;5.70;51.60
56729;DHT22;42612;52.232;7.560;2023-02-28T06:25:46;5.70;51.40
56729;DHT22;42612;52.232;7.560;2023-02-28T06:28:12;5.70;51.30
56729;DHT22;42612;52.232;7.560;2023-02-28T06:30:39;5.70;51.30
56729;DHT22;42612;52.232;7.560;2023-02-28T06:33:04;5.70;51.30
56729;DHT22;42612;52.232;7.560;2023-02-28T06:35:30;5.70;51.30
56729;DHT22;42612;52.232;7.560;2023-02-28T06:37:57;5.70;51.60
56729;DHT22;42612;52.232;7.560;2023-02-28T06:40:23;5.60;51.70
56729;DHT22;42612;52.232;7.560;2023-02-28T06:42:48;5.60;51.70
56729;DHT22;42612;52.232;7.560;2023-02-28T06:45:14;5.60;51.70
56729;DHT22;42612;52.232;7.560;2023-02-28T06:47:41;5.60;51.70
56729;DHT22;42612;52.232;7.560;2023-02-28T06:50:09;5.70;51.70
56729;DHT22;42612;52.232;7.560;2023-02-28T06:52:36;5.60;51.60
56729;DHT22;42612;52.232;7.560;2023-02-28T06:55:04;5.70;51.70
56729;DHT22;42612;52.232;7.560;2023-02-28T06:57:31;5.70;51.70
56729;DHT22;42612;52.232;7.560;2023-02-28T06:59:59;5.60;51.60
56729;DHT22;42612;52.232;7.560;2023-02-28T07:02:26;5.60;51.80
56729;DHT22;42612;52.232;7.560;2023-02-28T07:04:52;5.60;51.70
56729;DHT22;42612;52.232;7.560;2023-02-28T07:07:18;5.60;51.80
56729;DHT22;42612;52.232;7.560;2023-02-28T07:09:43;5.70;52.10
56729;DHT22;42612;52.232;7.560;2023-02-28T07:12:09;5.70;52.30
56729;DHT22;42612;52.232;7.560;2023-02-28T07:14:36;5.70;52.40
56729;DHT22;42612;52.232;7.560;2023-02-28T07:17:02;5.70;52.60
56729;DHT22;42612;52.232;7.560;2023-02-28T07:19:28;5.70;52.80
56729;DHT22;42612;52.232;7.560;2023-02-28T07:21:54;5.70;52.90
56729;DHT22;42612;52.232;7.560;2023-02-28T07:24:20;5.70;53.10
56729;DHT22;42612;52.232;7.560;2023-02-28T07:26:46;5.80;52.90
56729;DHT22;42612;52.232;7.560;2023-02-28T07:29:12;5.80;53.00
56729;DHT22;42612;52.232;7.560;2023-02-28T07:31:37;5.80;53.10
56729;DHT22;42612;52.232;7.560;2023-02-28T07:34:03;5.90;53.20
56729;DHT22;42612;52.232;7.560;2023-02-28T07:36:28;5.90;53.20
56729;DHT22;42612;52.232;7.560;2023-02-28T07:38:54;5.90;53.20
56729;DHT22;42612;52.232;7.560;2023-02-28T07:41:21;6.00;53.10
56729;DHT22;42612;52.232;7.560;2023-02-28T07:43:48;6.00;53.20
56729;DHT22;42612;52.232;7.560;2023-02-28T07:46:15;6.10;53.10
56729;DHT22;42612;52.232;7.560;2023-02-28T07:48:42;6.10;53.10
56729;DHT22;42612;52.232;7.560;2023-02-28T07:51:08;6.10;53.10
56729;DHT22;42612;52.232;7.560;2023-02-28T07:53:34;6.20;53.20
56729;DHT22;42612;52.232;7.560;2023-02-28T07:56:01;6.20;52.90
56729;DHT22;42612;52.232;7.560;2023-02-28T07:58:28;6.20;52.80
56729;DHT22;42612;52.232;7.560;2023-02-28T08:00:55;6.30;52.80
56729;DHT22;42612;52.232;7.560;2023-02-28T08:03:22;6.30;52.90
56729;DHT22;42612;52.232;7.560;2023-02-28T08:05:49;6.30;53.00
56729;DHT22;42612;52.232;7.560;2023-02-28T08:08:16;6.40;52.90
56729;DHT22;42612;52.232;7.560;2023-02-28T08:10:42;6.40;53.00
56729;DHT22;42612;52.232;7.560;2023-02-28T08:13:08;6.40;53.00
56729;DHT22;42612;52.232;7.560;2023-02-28T08:15:35;6.50;53.20
56729;DHT22;42612;52.232;7.560;2023-02-28T08:18:01;6.50;53.80
56729;DHT22;42612;52.232;7.560;2023-02-28T08:20:27;6.60;53.60
56729;DHT22;42612;52.232;7.560;2023-02-28T08:22:53;6.60;53.10
56729;DHT22;42612;52.232;7.560;2023-02-28T08:25:19;6.60;52.80
56729;DHT22;42612;52.232;7.560;2023-02-28T08:27:46;6.70;52.70
56729;DHT22;42612;52.232;7.560;2023-02-28T08:30:13;6.70;52.50
56729;DHT22;42612;52.232;7.560;2023-02-28T08:32:40;6.80;52.40
56729;DHT22;42612;52.232;7.560;2023-02-28T08:35:06;6.90;52.40
56729;DHT22;42612;52.232;7.560;2023-02-28T08:37:34;6.90;52.20
56729;DHT22;42612;52.232;7.560;2023-02-28T08:40:00;7.00;52.00
56729;DHT22;42612;52.232;7.560;2023-02-28T08:42:25;7.00;51.80
56729;DHT22;42612;52.232;7.560;2023-02-28T08:44:51;7.10;51.40
56729;DHT22;42612;52.232;7.560;2023-02-28T08:47:17;7.20;51.80
56729;DHT22;42612;52.232;7.560;2023-02-28T08:49:42;7.20;51.90
56729;DHT22;42612;52.232;7.560;2023-02-28T08:52:08;7.30;51.60
56729;DHT22;42612;52.232;7.560;2023-02-28T08:54:35;7.40;51.60
56729;DHT22;42612;52.232;7.560;2023-02-28T08:57:01;7.40;51.20
56729;DHT22;42612;52.232;7.560;2023-02-28T08:59:27;7.50;50.90
56729;DHT22;42612;52.232;7.560;2023-02-28T09:01:53;7.60;50.60
56729;DHT22;42612;52.232;7.560;2023-02-28T09:04:19;7.60;50.40
56729;DHT22;42612;52.232;7.560;2023-02-28T09:06:44;7.70;50.20
56729;DHT22;42612;52.232;7.560;2023-02-28T09:09:10;7.80;49.90
56729;DHT22;42612;52.232;7.560;2023-02-28T09:11:36;7.80;50.20
56729;DHT22;42612;52.232;7.560;2023-02-28T09:14:02;7.90;50.30
56729;DHT22;42612;52.232;7.560;2023-02-28T09:16:30;8.00;50.00
56729;DHT22;42612;52.232;7.560;2023-02-28T09:18:59;8.00;49.30
56729;DHT22;42612;52.232;7.560;2023-02-28T09:21:25;8.10;49.20
56729;DHT22;42612;52.232;7.560;2023-02-28T09:23:51;8.10;49.90
56729;DHT22;42612;52.232;7.560;2023-02-28T09:26:19;8.20;49.80
56729;DHT22;42612;52.232;7.560;2023-02-28T09:28:47;8.20;49.70
56729;DHT22;42612;52.232;7.560;2023-02-28T09:31:16;8.30;49.50
56729;DHT22;42612;52.232;7.560;2023-02-28T09:33:46;8.40;49.60
56729;DHT22;42612;52.232;7.560;2023-02-28T09:36:12;8.40;49.10
56729;DHT22;42612;52.232;7.560;2023-02-28T09:38:38;8.50;48.80
56729;DHT22;42612;52.232;7.560;2023-02-28T09:41:13;8.60;48.60
56729;DHT22;42612;52.232;7.560;2023-02-28T09:43:44;8.60;47.20
56729;DHT22;42612;52.232;7.560;2023-02-28T09:48:52;8.70;48.20
56729;DHT22;42612;52.232;7.560;2023-02-28T09:54:15;8.90;46.00
56729;DHT22;42612;52.232;7.560;2023-02-28T09:56:45;8.90;47.10
56729;DHT22;42612;52.232;7.560;2023-02-28T10:05:18;9.10;44.90
56729;DHT22;42612;52.232;7.560;2023-02-28T10:10:54;9.30;47.00
56729;DHT22;42612;52.232;7.560;2023-02-28T10:16:11;9.40;46.30
56729;DHT22;42612;52.232;7.560;2023-02-28T10:19:04;9.50;44.50
56729;DHT22;42612;52.232;7.560;2023-02-28T10:21:41;9.50;44.00
56729;DHT22;42612;52.232;7.560;2023-02-28T10:24:40;9.60;45.00
56729;DHT22;42612;52.232;7.560;2023-02-28T10:27:16;9.70;43.40
56729;DHT22;42612;52.232;7.560;2023-02-28T10:29:54;9.70;44.20
56729;DHT22;42612;52.232;7.560;2023-02-28T10:32:25;9.80;44.80
56729;DHT22;42612;52.232;7.560;2023-02-28T10:35:01;9.80;44.50
56729;DHT22;42612;52.232;7.560;2023-02-28T10:37:40;9.90;44.70
56729;DHT22;42612;52.232;7.560;2023-02-28T10:43:04;10.00;43.90
56729;DHT22;42612;52.232;7.560;2023-02-28T10:45:34;10.00;44.70
56729;DHT22;42612;52.232;7.560;2023-02-28T10:51:02;10.20;44.00
56729;DHT22;42612;52.232;7.560;2023-02-28T10:53:37;10.30;44.90
56729;DHT22;42612;52.232;7.560;2023-02-28T11:07:39;10.60;42.00
56729;DHT22;42612;52.232;7.560;2023-02-28T11:09:52;10.70;43.60
56729;DHT22;42612;52.232;7.560;2023-02-28T11:15:06;10.80;42.30
56729;DHT22;42612;52.232;7.560;2023-02-28T11:20:38;11.00;42.50
56729;DHT22;42612;52.232;7.560;2023-02-28T11:23:05;11.10;43.40
56729;DHT22;42612;52.232;7.560;2023-02-28T11:25:38;11.20;43.10
56729;DHT22;42612;52.232;7.560;2023-02-28T11:28:06;11.30;42.90
56729;DHT22;42612;52.232;7.560;2023-02-28T11:33:49;11.40;40.80
56729;DHT22;42612;52.232;7.560;2023-02-28T11:36:23;11.50;42.70
56729;DHT22;42612;52.232;7.560;2023-02-28T11:38:52;11.60;42.30
56729;DHT22;42612;52.232;7.560;2023-02-28T11:56:57;12.00;42.10
56729;DHT22;42612;52.232;7.560;2023-02-28T12:05:44;12.30;39.90
56729;DHT22;42612;52.232;7.560;2023-02-28T12:14:29;12.50;39.40
56729;DHT22;42612;52.232;7.560;2023-02-28T12:20:02;12.60;39.70
56729;DHT22;42612;52.232;7.560;2023-02-28T12:28:34;12.80;38.70
56729;DHT22;42612;52.232;7.560;2023-02-28T12:31:31;12.80;40.20
56729;DHT22;42612;52.232;7.560;2023-02-28T12:34:04;12.90;37.90
56729;DHT22;42612;52.232;7.560;2023-02-28T12:36:33;13.00;40.80
56729;DHT22;42612;52.232;7.560;2023-02-28T12:39:17;13.00;41.50
56729;DHT22;42612;52.232;7.560;2023-02-28T12:41:53;13.10;38.90
56729;DHT22;42612;52.232;7.560;2023-02-28T12:44:37;13.20;41.20
56729;DHT22;42612;52.232;7.560;2023-02-28T12:47:14;13.20;39.20
56729;DHT22;42612;52.232;7.560;2023-02-28T12:50:04;13.30;39.30
56729;DHT22;42612;52.232;7.560;2023-02-28T12:58:38;13.50;39.00
56729;DHT22;42612;52.232;7.560;2023-02-28T13:10:00;13.80;39.00
56729;DHT22;42612;52.232;7.560;2023-02-28T13:12:28;13.90;39.50
56729;DHT22;42612;52.232;7.560;2023-02-28T13:15:17;14.00;38.90
56729;DHT22;42612;52.232;7.560;2023-02-28T13:17:56;14.00;36.70
56729;DHT22;42612;52.232;7.560;2023-02-28T13:22:54;14.10;38.30
56729;DHT22;42612;52.232;7.560;2023-02-28T13:31:14;14.30;36.40
56729;DHT22;42612;52.232;7.560;2023-02-28T13:38:54;14.60;39.40
56729;DHT22;42612;52.232;7.560;2023-02-28T13:44:08;14.70;38.20
56729;DHT22;42612;52.232;7.560;2023-02-28T13:49:31;14.80;38.10
56729;DHT22;42612;52.232;7.560;2023-02-28T14:00:54;15.00;36.80
56729;DHT22;42612;52.232;7.560;2023-02-28T14:04:48;15.10;37.70
56729;DHT22;42612;52.232;7.560;2023-02-28T14:06:59;15.10;38.00
56729;DHT22;42612;52.232;7.560;2023-02-28T14:09:31;15.20;38.30
56729;DHT22;42612;52.232;7.560;2023-02-28T14:15:45;15.20;37.00
56729;DHT22;42612;52.232;7.560;2023-02-28T14:21:02;15.30;37.10
56729;DHT22;42612;52.232;7.560;2023-02-28T14:24:10;15.30;36.80
56729;DHT22;42612;52.232;7.560;2023-02-28T14:29:43;15.30;36.80
56729;DHT22;42612;52.232;7.560;2023-02-28T14:35:29;15.40;35.20
56729;DHT22;42612;52.232;7.560;2023-02-28T14:38:05;15.40;36.10
56729;DHT22;42612;52.232;7.560;2023-02-28T14:40:44;15.50;36.20
56729;DHT22;42612;52.232;7.560;2023-02-28T14:43:47;15.50;36.90
56729;DHT22;42612;52.232;7.560;2023-02-28T14:46:39;15.50;34.90
56729;DHT22;42612;52.232;7.560;2023-02-28T14:49:06;15.40;36.90
56729;DHT22;42612;52.232;7.560;2023-02-28T14:54:40;15.50;35.70
56729;DHT22;42612;52.232;7.560;2023-02-28T14:57:24;15.50;36.30
56729;DHT22;42612;52.232;7.560;2023-02-28T14:59:59;15.50;35.70
56729;DHT22;42612;52.232;7.560;2023-02-28T15:02:26;15.50;35.70
56729;DHT22;42612;52.232;7.560;2023-02-28T15:08:14;15.50;36.90
56729;DHT22;42612;52.232;7.560;2023-02-28T15:10:44;15.60;35.60
56729;DHT22;42612;52.232;7.560;2023-02-28T15:13:15;15.60;36.70
56729;DHT22;42612;52.232;7.560;2023-02-28T15:15:52;15.70;36.90
56729;DHT22;42612;52.232;7.560;2023-02-28T15:18:33;15.60;35.00
56729;DHT22;42612;52.232;7.560;2023-02-28T15:21:11;15.60;36.00
56729;DHT22;42612;52.232;7.560;2023-02-28T15:23:52;15.60;36.40
56729;DHT22;42612;52.232;7.560;2023-02-28T15:26:32;15.60;36.40
56729;DHT22;42612;52.232;7.560;2023-02-28T15:29:08;15.70;36.10
56729;DHT22;42612;52.232;7.560;2023-02-28T15:31:49;15.70;36.10
56729;DHT22;42612;52.232;7.560;2023-02-28T15:34:41;15.60;35.50
56729;DHT22;42612;52.232;7.560;2023-02-28T15:37:45;15.70;35.90
56729;DHT22;42612;52.232;7.560;2023-02-28T15:40:15;15.70;34.50
56729;DHT22;42612;52.232;7.560;2023-02-28T15:42:41;15.70;36.10
56729;DHT22;42612;52.232;7.560;2023-02-28T15:51:24;15.70;36.40
56729;DHT22;42612;52.232;7.560;2023-02-28T15:54:01;15.70;36.20
56729;DHT22;42612;52.232;7.560;2023-02-28T15:56:31;15.70;35.90
56729;DHT22;42612;52.232;7.560;2023-02-28T15:59:02;15.60;36.70
56729;DHT22;42612;52.232;7.560;2023-02-28T16:01:41;15.60;37.00
56729;DHT22;42612;52.232;7.560;2023-02-28T16:04:18;15.50;36.00
56729;DHT22;42612;52.232;7.560;2023-02-28T16:06:45;15.50;36.00
56729;DHT22;42612;52.232;7.560;2023-02-28T16:09:14;15.40;37.10
56729;DHT22;42612;52.232;7.560;2023-02-28T16:11:52;15.40;36.80
56729;DHT22;42612;52.232;7.560;2023-02-28T16:14:25;15.30;36.20
56729;DHT22;42612;52.232;7.560;2023-02-28T16:17:02;15.30;36.40
56729;DHT22;42612;52.232;7.560;2023-02-28T16:19:29;15.20;37.00
56729;DHT22;42612;52.232;7.560;2023-02-28T16:21:56;15.20;36.60
56729;DHT22;42612;52.232;7.560;2023-02-28T16:24:22;15.20;36.70
56729;DHT22;42612;52.232;7.560;2023-02-28T16:26:50;15.10;36.50
56729;DHT22;42612;52.232;7.560;2023-02-28T16:29:29;15.10;36.10
56729;DHT22;42612;52.232;7.560;2023-02-28T16:31:57;15.00;35.10
56729;DHT22;42612;52.232;7.560;2023-02-28T16:34:24;15.00;36.20
56729;DHT22;42612;52.232;7.560;2023-02-28T16:36:51;14.90;36.10
56729;DHT22;42612;52.232;7.560;2023-02-28T16:39:16;14.80;36.40
56729;DHT22;42612;52.232;7.560;2023-02-28T16:41:44;14.80;36.70
56729;DHT22;42612;52.232;7.560;2023-02-28T16:44:32;14.70;36.50
56729;DHT22;42612;52.232;7.560;2023-02-28T16:47:03;14.60;36.30
56729;DHT22;42612;52.232;7.560;2023-02-28T16:49:30;14.50;36.10
56729;DHT22;42612;52.232;7.560;2023-02-28T16:51:56;14.40;36.50
56729;DHT22;42612;52.232;7.560;2023-02-28T16:54:21;14.30;36.80
56729;DHT22;42612;52.232;7.560;2023-02-28T16:56:48;14.20;36.50
56729;DHT22;42612;52.232;7.560;2023-02-28T16:59:26;14.10;37.30
56729;DHT22;42612;52.232;7.560;2023-02-28T17:01:54;14.00;36.90
56729;DHT22;42612;52.232;7.560;2023-02-28T17:04:21;13.90;37.00
56729;DHT22;42612;52.232;7.560;2023-02-28T17:06:46;13.80;37.30
56729;DHT22;42612;52.232;7.560;2023-02-28T17:09:20;13.60;36.90
56729;DHT22;42612;52.232;7.560;2023-02-28T17:11:47;13.50;36.20
56729;DHT22;42612;52.232;7.560;2023-02-28T17:14:14;13.40;36.90
56729;DHT22;42612;52.232;7.560;2023-02-28T17:16:41;13.30;37.50
56729;DHT22;42612;52.232;7.560;2023-02-28T17:19:11;13.20;37.90
56729;DHT22;42612;52.232;7.560;2023-02-28T17:21:39;13.00;36.80
56729;DHT22;42612;52.232;7.560;2023-02-28T17:24:25;12.90;37.50
56729;DHT22;42612;52.232;7.560;2023-02-28T17:26:50;12.80;37.30
56729;DHT22;42612;52.232;7.560;2023-02-28T17:29:19;12.70;37.80
56729;DHT22;42612;52.232;7.560;2023-02-28T17:31:46;12.70;37.70
56729;DHT22;42612;52.232;7.560;2023-02-28T17:34:12;12.60;38.60
56729;DHT22;42612;52.232;7.560;2023-02-28T17:36:44;12.40;37.70
56729;DHT22;42612;52.232;7.560;2023-02-28T17:39:12;12.40;37.60
56729;DHT22;42612;52.232;7.560;2023-02-28T17:41:40;12.30;37.50
56729;DHT22;42612;52.232;7.560;2023-02-28T17:44:07;12.20;38.00
56729;DHT22;42612;52.232;7.560;2023-02-28T17:46:34;12.10;37.80
56729;DHT22;42612;52.232;7.560;2023-02-28T17:49:00;12.00;37.90
56729;DHT22;42612;52.232;7.560;2023-02-28T17:51:26;11.90;37.80
56729;DHT22;42612;52.232;7.560;2023-02-28T17:53:52;11.80;38.30
56729;DHT22;42612;52.232;7.560;2023-02-28T17:56:23;11.80;38.30
56729;DHT22;42612;52.232;7.560;2023-02-28T17:58:52;11.70;38.60
56729;DHT22;42612;52.232;7.560;2023-02-28T18:01:18;11.60;38.60
56729;DHT22;42612;52.232;7.560;2023-02-28T18:03:45;11.50;38.60
56729;DHT22;42612;52.232;7.560;2023-02-28T18:06:36;11.40;38.30
56729;DHT22;42612;52.232;7.560;2023-02-28T18:09:17;11.30;38.00
56729;DHT22;42612;52.232;7.560;2023-02-28T18:11:44;11.20;38.30
56729;DHT22;42612;52.232;7.560;2023-02-28T18:14:15;11.20;38.70
56729;DHT22;42612;52.232;7.560;2023-02-28T18:16:42;11.10;38.60
56729;DHT22;42612;52.232;7.560;2023-02-28T18:19:08;11.00;38.60
56729;DHT22;42612;52.232;7.560;2023-02-28T18:21:43;10.90;38.60
56729;DHT22;42612;52.232;7.560;2023-02-28T18:24:10;10.80;38.70
56729;DHT22;42612;52.232;7.560;2023-02-28T18:26:37;10.70;38.60
56729;DHT22;42612;52.232;7.560;2023-02-28T18:29:04;10.60;38.70
56729;DHT22;42612;52.232;7.560;2023-02-28T18:31:31;10.50;38.80
56729;DHT22;42612;52.232;7.560;2023-02-28T18:33:57;10.40;39.00
56729;DHT22;42612;52.232;7.560;2023-02-28T18:36:23;10.30;39.00
56729;DHT22;42612;52.232;7.560;2023-02-28T18:38:50;10.30;39.10
56729;DHT22;42612;52.232;7.560;2023-02-28T18:41:17;10.20;39.20
56729;DHT22;42612;52.232;7.560;2023-02-28T18:43:46;10.20;39.70
56729;DHT22;42612;52.232;7.560;2023-02-28T18:46:14;10.10;39.50
56729;DHT22;42612;52.232;7.560;2023-02-28T18:48:42;10.00;39.50
56729;DHT22;42612;52.232;7.560;2023-02-28T18:51:13;10.00;39.50
56729;DHT22;42612;52.232;7.560;2023-02-28T18:53:42;9.90;39.90
56729;DHT22;42612;52.232;7.560;2023-02-28T18:56:10;9.90;39.70
56729;DHT22;42612;52.232;7.560;2023-02-28T18:58:38;9.80;39.50
56729;DHT22;42612;52.232;7.560;2023-02-28T19:03:57;9.80;39.60